createdAt,value
2022-12-01T00:01:29.135Z,100227.98
2022-12-01T00:03:57.872Z,100229.89
2022-12-01T00:06:25.773Z,100232.48
2022-12-01T00:09:17.982Z,100233.33
2022-12-01T00:11:48.373Z,100231.77
2022-12-01T00:14:16.589Z,100233.51
2022-12-01T00:16:45.019Z,100229.86
2022-12-01T00:19:13.042Z,100224.65
2022-12-01T00:21:41.030Z,100219.98
2022-12-01T00:24:10.780Z,100221.89
2022-12-01T00:26:38.865Z,100222.75
2022-12-01T00:29:06.809Z,100221.54
2022-12-01T00:31:34.898Z,100224.14
2022-12-01T00:34:05.721Z,100224.48
2022-12-01T00:36:37.407Z,100224.33
2022-12-01T00:39:05.296Z,100222.42
2022-12-01T00:41:33.740Z,100222.08
2022-12-01T00:44:01.549Z,100220.69
2022-12-01T00:46:29.482Z,100223.45
2022-12-01T00:48:57.450Z,100216.54
2022-12-01T00:51:26.084Z,100217.39
2022-12-01T00:53:53.958Z,100217.05
2022-12-01T00:56:21.789Z,100215.65
2022-12-01T00:58:49.548Z,100212.54
2022-12-01T01:01:17.460Z,100213.23
2022-12-01T01:03:45.611Z,100211.50
2022-12-01T01:06:14.313Z,100212.19
2022-12-01T01:08:42.696Z,100209.95
2022-12-01T01:11:10.685Z,100211.15
2022-12-01T01:13:38.962Z,100209.94
2022-12-01T01:16:13.649Z,100206.83
2022-12-01T01:18:41.603Z,100206.13
2022-12-01T01:21:13.533Z,100204.73
2022-12-01T01:23:41.965Z,100208.56
2022-12-01T01:26:18.776Z,100207.17
2022-12-01T01:28:48.505Z,100200.23
2022-12-01T01:31:19.610Z,100196.05
2022-12-01T01:33:48.545Z,100197.80
2022-12-01T01:36:18.014Z,100196.23
2022-12-01T01:38:47.114Z,100198.15
2022-12-01T01:41:15.024Z,100195.88
2022-12-01T01:44:03.063Z,100190.67
2022-12-01T01:46:34.121Z,100189.64
2022-12-01T01:49:02.006Z,100191.02
2022-12-01T01:51:46.779Z,100190.48
2022-12-01T01:54:20.502Z,100189.80
2022-12-01T01:56:51.480Z,100187.19
2022-12-01T01:59:22.865Z,100186.32
2022-12-01T02:02:00.632Z,100185.63
2022-12-01T02:04:30.163Z,100181.28
2022-12-01T02:06:58.089Z,100184.39
2022-12-01T02:09:26.129Z,100184.92
2022-12-01T02:12:12.524Z,100184.05
2022-12-01T02:15:11.549Z,100181.61
2022-12-01T02:17:47.986Z,100182.84
2022-12-01T02:20:34.657Z,100184.23
2022-12-01T02:23:11.647Z,100182.85
2022-12-01T02:25:54.631Z,100183.55
2022-12-01T02:28:44.561Z,100185.10
2022-12-01T02:31:21.179Z,100183.02
2022-12-01T02:33:59.210Z,100180.41
2022-12-01T02:36:50.248Z,100182.84
2022-12-01T02:39:27.447Z,100180.41
2022-12-01T02:42:09.808Z,100181.80
2022-12-01T02:44:42.579Z,100181.30
2022-12-01T02:47:14.768Z,100178.00
2022-12-01T02:49:49.748Z,100176.98
2022-12-01T02:52:19.752Z,100176.81
2022-12-01T02:54:48.537Z,100176.64
2022-12-01T02:57:17.168Z,100174.04
2022-12-01T02:59:50.236Z,100173.87
2022-12-01T03:02:55.359Z,100171.45
2022-12-01T03:06:02.158Z,100170.75
2022-12-01T03:08:46.057Z,100173.35
2022-12-01T03:11:27.340Z,100171.27
2022-12-01T03:14:07.840Z,100172.65
2022-12-01T03:16:44.704Z,100171.61
2022-12-01T03:19:18.623Z,100168.50
2022-12-01T03:22:05.563Z,100165.38
2022-12-01T03:24:36.495Z,100162.45
2022-12-01T03:27:06.244Z,100164.86
2022-12-01T03:29:50.645Z,100165.39
2022-12-01T03:32:26.515Z,100169.02
2022-12-01T03:35:06.152Z,100171.27
2022-12-01T03:37:45.011Z,100173.54
2022-12-01T03:40:18.357Z,100178.55
2022-12-01T03:42:58.076Z,100177.34
2022-12-01T03:45:52.544Z,100182.02
2022-12-01T03:48:21.701Z,100187.39
2022-12-01T03:51:11.094Z,100186.67
2022-12-01T03:53:59.162Z,100183.55
2022-12-01T03:56:32.660Z,100177.65
2022-12-01T03:59:02.966Z,100178.17
2022-12-01T04:01:33.016Z,100180.25
2022-12-01T04:04:12.500Z,100180.94
2022-12-01T04:06:47.433Z,100186.48
2022-12-01T04:09:15.393Z,100184.92
2022-12-01T04:12:01.973Z,100180.92
2022-12-01T04:14:30.418Z,100180.23
2022-12-01T04:16:58.222Z,100181.79
2022-12-01T04:19:26.041Z,100185.77
2022-12-01T04:21:53.907Z,100187.52
2022-12-01T04:24:21.811Z,100184.91
2022-12-01T04:26:49.660Z,100185.45
2022-12-01T04:29:17.511Z,100183.71
2022-12-01T04:31:45.513Z,100180.59
2022-12-01T04:34:13.520Z,100180.59
2022-12-01T04:36:41.429Z,100184.23
2022-12-01T04:39:09.277Z,100184.39
2022-12-01T04:41:37.146Z,100183.52
2022-12-01T04:44:05.243Z,100184.04
2022-12-01T04:46:33.127Z,100181.96
2022-12-01T04:49:01.016Z,100185.61
2022-12-01T04:51:29.163Z,100190.83
2022-12-01T04:53:57.046Z,100189.25
2022-12-01T04:56:24.966Z,100186.98
2022-12-01T04:58:52.847Z,100188.55
2022-12-01T05:01:20.968Z,100192.88
2022-12-01T05:03:51.549Z,100191.84
2022-12-01T05:06:22.342Z,100195.48
2022-12-01T05:08:51.425Z,100196.52
2022-12-01T05:11:19.370Z,100194.96
2022-12-01T05:13:49.168Z,100199.48
2022-12-01T05:16:22.044Z,100197.58
2022-12-01T05:19:14.585Z,100199.31
2022-12-01T05:21:44.148Z,100199.67
2022-12-01T05:24:13.825Z,100196.89
2022-12-01T05:26:43.422Z,100195.52
2022-12-01T05:29:12.572Z,100191.89
2022-12-01T05:31:40.819Z,100196.39
2022-12-01T05:34:09.106Z,100197.77
2022-12-01T05:36:37.131Z,100202.95
2022-12-01T05:39:05.421Z,100201.22
2022-12-01T05:41:33.292Z,100200.17
2022-12-01T05:44:01.146Z,100201.73
2022-12-01T05:46:28.983Z,100199.14
2022-12-01T05:48:56.871Z,100200.52
2022-12-01T05:51:24.752Z,100201.05
2022-12-01T05:53:52.604Z,100201.41
2022-12-01T05:56:20.433Z,100197.79
2022-12-01T05:58:48.221Z,100198.48
2022-12-01T06:01:16.222Z,100198.84
2022-12-01T06:03:44.120Z,100198.66
2022-12-01T06:06:12.009Z,100198.31
2022-12-01T06:08:39.852Z,100201.09
2022-12-01T06:11:07.758Z,100203.16
2022-12-01T06:13:35.731Z,100205.41
2022-12-01T06:16:05.862Z,100208.02
2022-12-01T06:18:36.882Z,100209.74
2022-12-01T06:21:06.292Z,100212.35
2022-12-01T06:23:34.551Z,100214.77
2022-12-01T06:26:02.502Z,100212.01
2022-12-01T06:28:30.505Z,100207.68
2022-12-01T06:31:03.232Z,100210.10
2022-12-01T06:33:32.138Z,100211.66
2022-12-01T06:36:02.263Z,100212.00
2022-12-01T06:38:31.701Z,100211.15
2022-12-01T06:41:00.277Z,100208.38
2022-12-01T06:43:28.531Z,100206.81
2022-12-01T06:46:01.580Z,100205.24
2022-12-01T06:48:30.787Z,100207.33
2022-12-01T06:51:00.425Z,100210.45
2022-12-01T06:53:29.678Z,100206.98
2022-12-01T06:56:02.003Z,100212.36
2022-12-01T06:58:31.057Z,100210.28
2022-12-01T07:00:59.437Z,100209.94
2022-12-01T07:03:27.683Z,100212.02
2022-12-01T07:06:02.749Z,100213.24
2022-12-01T07:08:32.180Z,100218.10
2022-12-01T07:11:01.860Z,100222.77
2022-12-01T07:13:33.446Z,100225.38
2022-12-01T07:16:03.552Z,100229.52
2022-12-01T07:18:33.021Z,100229.18
2022-12-01T07:21:03.086Z,100231.43
2022-12-01T07:23:31.293Z,100231.44
2022-12-01T07:26:03.288Z,100233.70
2022-12-01T07:28:31.193Z,100233.88
2022-12-01T07:31:06.773Z,100236.64
2022-12-01T07:33:35.234Z,100243.23
2022-12-01T07:36:03.904Z,100242.02
2022-12-01T07:38:33.982Z,100238.89
2022-12-01T07:41:09.413Z,100239.92
2022-12-01T07:43:37.793Z,100243.23
2022-12-01T07:46:10.112Z,100242.35
2022-12-01T07:48:39.314Z,100240.61
2022-12-01T07:51:09.231Z,100246.50
2022-12-01T07:53:37.497Z,100244.08
2022-12-01T07:56:08.823Z,100243.89
2022-12-01T07:58:37.466Z,100248.05
2022-12-01T08:01:10.141Z,100250.47
2022-12-01T08:03:38.854Z,100247.52
2022-12-01T08:06:08.204Z,100246.64
2022-12-01T08:08:38.860Z,100245.41
2022-12-01T08:11:11.793Z,100244.88
2022-12-01T08:13:41.530Z,100237.92
2022-12-01T08:16:11.884Z,100236.72
2022-12-01T08:18:41.232Z,100237.23
2022-12-01T08:21:12.426Z,100234.63
2022-12-01T08:23:42.184Z,100234.61
2022-12-01T08:26:16.651Z,100237.21
2022-12-01T08:28:45.311Z,100235.81
2022-12-01T08:31:17.664Z,100233.38
2022-12-01T08:33:47.445Z,100235.84
2022-12-01T08:36:15.907Z,100234.47
2022-12-01T08:38:45.042Z,100232.04
2022-12-01T08:41:13.989Z,100233.43
2022-12-01T08:44:00.284Z,100234.29
2022-12-01T08:46:33.006Z,100234.64
2022-12-01T08:49:02.642Z,100236.54
2022-12-01T08:51:31.668Z,100241.73
2022-12-01T08:54:00.713Z,100240.84
2022-12-01T08:56:32.832Z,100238.58
2022-12-01T08:59:00.757Z,100237.02
2022-12-01T09:01:29.190Z,100237.68
2022-12-01T09:04:10.410Z,100240.45
2022-12-01T09:06:43.002Z,100240.45
2022-12-01T09:09:17.775Z,100240.96
2022-12-01T09:11:46.985Z,100245.31
2022-12-01T09:14:16.627Z,100249.83
2022-12-01T09:16:46.632Z,100247.59
2022-12-01T09:19:19.227Z,100247.41
2022-12-01T09:21:51.444Z,100247.73
2022-12-01T09:24:19.320Z,100245.45
2022-12-01T09:26:47.346Z,100247.02
2022-12-01T09:29:16.583Z,100243.52
2022-12-01T09:31:44.828Z,100244.89
2022-12-01T09:34:18.571Z,100244.35
2022-12-01T09:36:46.842Z,100239.25
2022-12-01T09:39:17.795Z,100237.31
2022-12-01T09:41:51.935Z,100233.12
2022-12-01T09:44:30.906Z,100230.50
2022-12-01T09:47:06.981Z,100227.88
2022-12-01T09:49:47.990Z,100229.10
2022-12-01T09:52:19.794Z,100223.38
2022-12-01T09:54:48.160Z,100221.13
2022-12-01T09:57:42.581Z,100222.17
2022-12-01T10:00:14.158Z,100216.98
2022-12-01T10:03:01.265Z,100215.07
2022-12-01T10:05:51.259Z,100213.33
2022-12-01T10:08:36.597Z,100209.98
2022-12-01T10:11:30.290Z,100209.63
2022-12-01T10:13:59.807Z,100209.44
2022-12-01T10:16:35.396Z,100211.50
2022-12-01T10:19:14.961Z,100207.14
2022-12-01T10:22:21.148Z,100210.10
2022-12-01T10:25:00.119Z,100205.92
2022-12-01T10:27:28.081Z,100202.98
2022-12-01T10:30:05.437Z,100201.07
2022-12-01T10:32:41.602Z,100198.46
2022-12-01T10:35:16.557Z,100198.27
2022-12-01T10:37:45.879Z,100195.65
2022-12-01T10:40:15.851Z,100193.92
2022-12-01T10:42:46.569Z,100189.75
2022-12-01T10:45:16.285Z,100190.77
2022-12-01T10:48:23.076Z,100188.65
2022-12-01T10:50:56.825Z,100184.66
2022-12-01T10:53:25.411Z,100183.77
2022-12-01T10:56:02.140Z,100180.29
2022-12-01T10:58:33.416Z,100180.81
2022-12-01T11:01:05.953Z,100179.05
2022-12-01T11:03:36.540Z,100176.91
2022-12-01T11:06:07.406Z,100170.09
2022-12-01T11:08:46.849Z,100173.75
2022-12-01T11:11:25.037Z,100172.56
2022-12-01T11:13:54.525Z,100175.36
2022-12-01T11:16:42.535Z,100172.77
2022-12-01T11:19:23.486Z,100175.88
2022-12-01T11:21:58.105Z,100180.05
2022-12-01T11:24:30.473Z,100180.58
2022-12-01T11:26:59.705Z,100176.21
2022-12-01T11:29:39.664Z,100175.13
2022-12-01T11:32:17.822Z,100174.27
2022-12-01T11:34:55.452Z,100174.42
2022-12-01T11:37:27.684Z,100170.98
2022-12-01T11:40:04.226Z,100170.08
2022-12-01T11:42:34.405Z,100169.04
2022-12-01T11:45:18.729Z,100164.84
2022-12-01T11:47:59.452Z,100163.44
2022-12-01T11:50:30.294Z,100162.36
2022-12-01T11:52:59.160Z,100159.40
2022-12-01T11:55:30.078Z,100158.02
2022-12-01T11:58:04.259Z,100162.42
2022-12-01T12:00:56.219Z,100165.91
2022-12-01T12:03:44.463Z,100162.09
2022-12-01T12:09:31.126Z,100166.39
2022-12-01T12:12:04.901Z,100163.63
2022-12-01T12:14:32.752Z,100161.89
2022-12-01T12:17:28.385Z,100161.73
2022-12-01T12:20:28.975Z,100163.53
2022-12-01T12:23:34.033Z,100163.92
2022-12-01T12:26:27.098Z,100166.02
2022-12-01T12:29:17.183Z,100164.63
2022-12-01T12:32:00.700Z,100165.12
2022-12-01T12:34:44.310Z,100162.70
2022-12-01T12:37:48.911Z,100166.89
2022-12-01T12:40:28.361Z,100164.28
2022-12-01T12:43:33.846Z,100167.42
2022-12-01T12:46:11.781Z,100168.30
2022-12-01T12:51:49.247Z,100162.40
2022-12-01T12:54:20.934Z,100162.77
2022-12-01T12:56:54.978Z,100161.74
2022-12-01T12:59:31.206Z,100163.33
2022-12-01T13:02:24.533Z,100161.77
2022-12-01T13:05:21.352Z,100162.63
2022-12-01T13:08:00.983Z,100161.23
2022-12-01T13:10:33.263Z,100162.46
2022-12-01T13:13:27.854Z,100167.17
2022-12-01T13:15:58.761Z,100168.38
2022-12-01T13:18:34.642Z,100165.05
2022-12-01T13:21:04.585Z,100166.06
2022-12-01T13:23:34.635Z,100166.27
2022-12-01T13:26:08.223Z,100167.48
2022-12-01T13:28:57.977Z,100168.02
2022-12-01T13:31:26.007Z,100170.81
2022-12-01T13:33:58.718Z,100173.94
2022-12-01T13:36:46.264Z,100171.70
2022-12-01T13:39:23.509Z,100172.04
2022-12-01T13:42:19.813Z,100172.71
2022-12-01T13:44:54.639Z,100176.36
2022-12-01T13:47:47.254Z,100176.36
2022-12-01T13:50:43.878Z,100178.80
2022-12-01T13:53:17.725Z,100179.67
2022-12-01T13:55:57.535Z,100179.30
2022-12-01T13:58:34.592Z,100173.56
2022-12-01T14:01:21.386Z,100165.75
2022-12-01T14:04:11.479Z,100161.61
2022-12-01T14:06:50.559Z,100161.48
2022-12-01T14:09:31.789Z,100165.14
2022-12-01T14:12:06.619Z,100164.09
2022-12-01T14:14:49.431Z,100164.25
2022-12-01T14:17:45.098Z,100166.52
2022-12-01T14:20:12.928Z,100171.04
2022-12-01T14:22:44.241Z,100169.83
2022-12-01T14:25:27.014Z,100168.77
2022-12-01T14:28:01.320Z,100171.39
2022-12-01T14:30:45.853Z,100169.65
2022-12-01T14:33:51.496Z,100170.19
2022-12-01T14:36:22.868Z,100162.92
2022-12-01T14:39:02.366Z,100161.20
2022-12-01T14:41:48.540Z,100162.60
2022-12-01T14:44:35.051Z,100163.29
2022-12-01T14:47:11.826Z,100162.95
2022-12-01T14:49:43.714Z,100163.64
2022-12-01T14:52:29.398Z,100160.15
2022-12-01T14:55:04.878Z,100163.98
2022-12-01T14:57:37.677Z,100159.13
2022-12-01T15:00:16.886Z,100157.75
2022-12-01T15:02:55.018Z,100156.91
2022-12-01T15:05:30.007Z,100154.66
2022-12-01T15:08:39.760Z,100155.73
2022-12-01T15:10:59.085Z,100153.45
2022-12-01T15:13:30.817Z,100151.54
2022-12-01T15:16:04.747Z,100150.31
2022-12-01T15:18:36.783Z,100146.48
2022-12-01T15:21:31.765Z,100147.89
2022-12-01T15:24:01.053Z,100148.42
2022-12-01T15:26:34.592Z,100145.66
2022-12-01T15:29:11.772Z,100143.58
2022-12-01T15:31:40.400Z,100144.11
2022-12-01T15:34:23.214Z,100145.14
2022-12-01T15:36:52.828Z,100147.40
2022-12-01T15:39:29.763Z,100150.70
2022-12-01T15:41:58.613Z,100148.77
2022-12-01T15:44:30.695Z,100148.79
2022-12-01T15:46:59.062Z,100149.12
2022-12-01T15:49:30.062Z,100149.61
2022-12-01T15:52:12.446Z,100146.48
2022-12-01T15:54:40.426Z,100146.83
2022-12-01T15:57:09.185Z,100148.39
2022-12-01T15:59:44.490Z,100143.33
2022-12-01T16:02:29.432Z,100141.94
2022-12-01T16:05:07.085Z,100139.35
2022-12-01T16:10:28.409Z,100137.65
2022-12-01T16:13:34.404Z,100137.30
2022-12-01T16:16:19.933Z,100135.39
2022-12-01T16:19:04.167Z,100135.03
2022-12-01T16:21:42.020Z,100139.35
2022-12-01T16:24:15.680Z,100140.05
2022-12-01T16:26:47.804Z,100143.19
2022-12-01T16:29:20.220Z,100144.23
2022-12-01T16:51:17.332Z,100132.83
2022-12-01T16:54:00.253Z,100131.20
2022-12-01T16:56:29.052Z,100137.53
2022-12-01T16:58:57.106Z,100141.76
2022-12-01T17:01:25.378Z,100141.30
2022-12-01T17:03:53.263Z,100140.80
2022-12-01T17:06:21.153Z,100137.00
2022-12-01T17:08:49.276Z,100140.15
2022-12-01T17:11:17.122Z,100143.14
2022-12-01T17:13:44.961Z,100144.71
2022-12-01T17:16:18.156Z,100141.96
2022-12-01T17:18:46.674Z,100141.10
2022-12-01T17:21:14.783Z,100140.09
2022-12-01T17:23:42.673Z,100136.10
2022-12-01T17:26:16.998Z,100138.16
2022-12-01T17:28:45.195Z,100135.40
2022-12-01T17:31:13.962Z,100133.50
2022-12-01T17:33:42.251Z,100131.61
2022-12-01T17:36:12.553Z,100132.31
2022-12-01T17:38:44.843Z,100133.36
2022-12-01T17:41:16.228Z,100133.89
2022-12-01T17:43:44.229Z,100134.75
2022-12-01T17:46:12.985Z,100136.65
2022-12-01T17:48:43.829Z,100131.95
2022-12-01T17:51:14.031Z,100135.95
2022-12-01T17:53:41.890Z,100134.91
2022-12-01T17:56:12.538Z,100134.04
2022-12-01T17:58:41.057Z,100131.09
2022-12-01T18:01:17.913Z,100130.73
2022-12-01T18:03:46.811Z,100133.33
2022-12-01T18:06:16.066Z,100134.37
2022-12-01T18:08:44.211Z,100134.02
2022-12-01T18:11:15.307Z,100139.21
2022-12-01T18:13:46.545Z,100141.48
2022-12-01T18:16:17.643Z,100138.52
2022-12-01T18:18:46.238Z,100138.50
2022-12-01T18:21:16.715Z,100139.73
2022-12-01T18:24:01.161Z,100139.35
2022-12-01T18:26:31.779Z,100138.66
2022-12-01T18:29:03.294Z,100137.98
2022-12-01T18:31:33.085Z,100134.52
2022-12-01T18:34:03.450Z,100128.79
2022-12-01T18:36:33.954Z,100130.52
2022-12-01T18:39:04.485Z,100128.95
2022-12-01T18:41:32.363Z,100128.23
2022-12-01T18:44:00.212Z,100127.00
2022-12-01T18:46:28.222Z,100127.35
2022-12-01T18:49:02.136Z,100124.91
2022-12-01T18:51:35.133Z,100127.53
2022-12-01T18:54:04.852Z,100129.98
2022-12-01T18:56:33.603Z,100129.80
2022-12-01T18:59:06.747Z,100134.98
2022-12-01T19:01:37.495Z,100129.96
2022-12-01T19:04:06.745Z,100131.69
2022-12-01T19:06:37.558Z,100130.98
2022-12-01T19:09:08.630Z,100127.49
2022-12-01T19:11:37.694Z,100122.96
2022-12-01T19:14:05.619Z,100118.61
2022-12-01T19:16:33.757Z,100110.27
2022-12-01T19:19:01.671Z,100115.30
2022-12-01T19:21:29.482Z,100115.29
2022-12-01T19:23:57.370Z,100117.02
2022-12-01T19:26:25.976Z,100117.55
2022-12-01T19:28:53.771Z,100121.20
2022-12-01T19:31:24.831Z,100122.43
2022-12-01T19:33:54.334Z,100124.17
2022-12-01T19:36:25.174Z,100124.70
2022-12-01T19:38:55.612Z,100121.04
2022-12-01T19:41:25.711Z,100117.03
2022-12-01T19:43:54.033Z,100118.25
2022-12-01T19:46:23.871Z,100121.52
2022-12-01T19:48:58.779Z,100119.95
2022-12-01T19:51:33.603Z,100118.23
2022-12-01T19:54:02.108Z,100115.46
2022-12-01T19:56:30.284Z,100118.23
2022-12-01T19:58:58.695Z,100115.48
2022-12-01T20:01:27.462Z,100114.77
2022-12-01T20:03:55.809Z,100110.28
2022-12-01T20:06:28.149Z,100109.41
2022-12-01T20:08:58.413Z,100106.11
2022-12-01T20:11:29.532Z,100104.38
2022-12-01T20:13:57.335Z,100103.16
2022-12-01T20:16:26.901Z,100094.99
2022-12-01T20:18:54.974Z,100092.38
2022-12-01T20:21:30.050Z,100095.67
2022-12-01T20:23:59.357Z,100098.96
2022-12-01T20:26:32.727Z,100098.45
2022-12-01T20:29:03.923Z,100099.99
2022-12-01T20:31:33.181Z,100098.11
2022-12-01T20:34:04.858Z,100097.75
2022-12-01T20:36:33.757Z,100099.84
2022-12-01T20:39:02.108Z,100099.17
2022-12-01T20:41:30.025Z,100100.18
2022-12-01T20:44:01.243Z,100100.86
2022-12-01T20:46:33.301Z,100104.66
2022-12-01T20:49:01.137Z,100105.54
2022-12-01T20:51:33.083Z,100105.89
2022-12-01T20:56:50.272Z,100103.63
2022-12-01T20:59:18.104Z,100105.89
2022-12-01T21:01:45.957Z,100101.36
2022-12-01T21:04:13.896Z,100099.61
2022-12-01T21:06:42.198Z,100098.05
2022-12-01T21:09:10.644Z,100093.34
2022-12-01T21:12:08.352Z,100092.09
2022-12-01T21:14:41.414Z,100097.45
2022-12-01T21:17:15.944Z,100099.17
2022-12-01T21:20:07.012Z,100097.08
2022-12-01T21:22:36.018Z,100092.04
2022-12-01T21:25:15.397Z,100096.57
2022-12-01T21:27:43.493Z,100091.75
2022-12-01T21:30:29.992Z,100093.50
2022-12-01T21:33:16.966Z,100092.30
2022-12-01T21:35:44.762Z,100096.13
2022-12-01T21:38:16.483Z,100097.67
2022-12-01T21:40:47.563Z,100095.94
2022-12-01T21:43:24.137Z,100099.05
2022-12-01T21:45:57.141Z,100097.49
2022-12-01T21:48:25.044Z,100096.95
2022-12-01T21:51:01.549Z,100095.55
2022-12-01T21:53:36.385Z,100094.34
2022-12-01T21:56:04.275Z,100090.69
2022-12-01T21:58:36.300Z,100092.75
2022-12-01T22:01:16.709Z,100096.40
2022-12-01T22:03:46.104Z,100097.98
2022-12-01T22:06:29.772Z,100094.38
2022-12-01T22:09:00.985Z,100095.63
2022-12-01T22:11:30.556Z,100090.58
2022-12-01T22:14:18.979Z,100087.45
2022-12-01T22:17:05.129Z,100084.48
2022-12-01T22:19:42.443Z,100082.23
2022-12-01T22:22:14.309Z,100081.91
2022-12-01T22:25:16.618Z,100078.61
2022-12-01T22:27:44.421Z,100082.64
2022-12-01T22:30:22.835Z,100081.77
2022-12-01T22:32:59.634Z,100077.42
2022-12-01T22:35:31.011Z,100076.03
2022-12-01T22:38:08.772Z,100077.77
2022-12-01T22:40:57.801Z,100077.77
2022-12-01T22:43:32.360Z,100076.70
2022-12-01T22:46:00.215Z,100075.85
2022-12-01T22:48:39.857Z,100078.11
2022-12-01T22:51:17.051Z,100079.19
2022-12-01T22:53:46.205Z,100078.13
2022-12-01T22:56:20.856Z,100077.59
2022-12-01T23:12:05.409Z,100064.52
2022-12-01T23:14:34.015Z,100057.22
2022-12-01T23:17:07.943Z,100052.79
2022-12-01T23:19:35.806Z,100053.89
2022-12-01T23:22:03.792Z,100057.77
2022-12-01T23:24:34.005Z,100056.74
2022-12-01T23:27:02.175Z,100057.81
2022-12-01T23:29:30.880Z,100053.00
2022-12-01T23:31:59.120Z,100048.38
2022-12-01T23:34:27.801Z,100044.77
2022-12-01T23:36:56.281Z,100046.02
2022-12-01T23:39:31.961Z,100047.75
2022-12-01T23:42:00.326Z,100048.27
2022-12-01T23:44:40.446Z,100047.08
2022-12-01T23:47:20.310Z,100042.55
2022-12-01T23:49:50.739Z,100043.61
2022-12-01T23:52:21.047Z,100042.06
2022-12-01T23:54:49.415Z,100036.86
2022-12-01T23:57:23.039Z,100031.67
2022-12-01T23:59:55.240Z,100025.44
